Current Weather

Battle Creek Exec at Kellogg Fld

Battle Creek, Michigan (KBTL)

Report from: Friday, February 23, 2024 2:53 PM EST
Current time: Friday, February 23, 2024 3:22 PM EST

Nearby weather – Weather history – Daily summaries
Weather forecast

Temperature10.0°C (50.0°F)
Wind chill7.5°C (45.6°F)
Dew point-1.1°C (30.0°F)
Winds 10 kts (5.1 m/s, 11.5 mph) North-Northwest (330°)
Visibility10 mi. (16.1 km)
Clouds Scattered clouds 4,800 ft. (1,463 m)
Altimeter29.62 in.Hg (1003 mB)
Relative humidity46 %
Density altitude-175 ft. (-53 m)
Sea-level pressure100.3 kPa (1003 mB, 29.63 in.Hg)
Remarks Automated weather observing station with precipitation discriminator
Flight conditions Visual Meteorological Conditions
Raw dataKBTL 231953Z 33010KT 10SM SCT048 10/M01 A2962 RMK AO2 SLP034 T01001011
An error has occurred. This application may no longer respond until reloaded. Reload 🗙